Terminal Aerodrome Forecast
Issued by NWS

Current Version | Previous Version | Text Only | Print | Product List | Glossary Off
Versions: 1 2 3 4 5 6 7 8 9 10 11 12 13 14

152
FTUS41 KPBZ 220520
TAFHLG
TAF
KHLG 220520Z 2206/2306 27005KT P6SM SKC
     FM221300 30004KT P6SM SCT035
     FM230000 31003KT P6SM FEW250=

USA.gov is the U.S. government's official web portal to all federal, state and local government web resources and services.